PDT,Max TemperatureF,Mean TemperatureF,Min TemperatureF,Max Dew PointF,MeanDew PointF,Min DewpointF,Max Humidity, Mean Humidity, Min Humidity, Max Sea Level PressureIn, Mean Sea Level PressureIn, Min Sea Level PressureIn, Max VisibilityMiles, Mean VisibilityMiles, Min VisibilityMiles, Max Wind SpeedMPH, Mean Wind SpeedMPH, Max Gust SpeedMPH,PrecipitationIn, CloudCover, Events, WindDirDegrees
2013-3-1,63,54,45,46,43,39,80,65,48,30.44,30.37,30.28,10,10,10,20,11,26,0.00,2,,187
2013-3-2,57,50,44,47,42,38,80,69,59,30.27,30.12,30.04,10,10,10,17,6,,0.00,5,,173
2013-3-3,50,42,33,41,28,19,83,59,31,30.25,30.15,30.04,10,10,10,18,10,18,0.00,3,Rain,223
2013-3-4,52,40,28,31,24,17,78,52,32,30.31,30.19,30.02,10,10,10,10,4,,0.00,0,,57
2013-3-5,43,36,30,35,29,21,86,71,54,30.01,29.91,29.81,10,10,10,9,4,,0.00,6,,185
2013-3-6,45,40,35,40,37,35,100,91,76,29.96,29.68,29.57,10,4,0,22,4,26,0.06,8,Fog-Rain,212
2013-3-7,53,45,37,36,31,27,79,60,37,30.08,30.04,29.97,10,10,10,13,8,,0.00,2,,176
2013-3-8,52,41,30,35,31,27,85,71,49,30.18,30.08,30.03,10,10,10,8,5,,0.00,0,,173
2013-3-9,55,44,34,33,30,24,79,58,33,30.43,30.34,30.19,10,10,10,9,5,,0.00,1,,164
2013-3-10,55,46,37,41,31,23,80,55,29,30.44,30.37,30.31,10,10,8,18,9,,0.02,5,Rain,191
2013-3-11,55,50,44,41,38,34,82,66,45,30.35,30.31,30.22,10,10,10,15,10,,0.00,5,,190
2013-3-12,63,57,51,45,43,41,77,64,46,30.21,30.14,30.10,10,10,10,16,9,,0.00,5,Rain,209
2013-3-13,66,58,51,46,40,37,71,55,37,30.22,30.16,30.12,10,10,10,20,9,,0.00,2,,181
2013-3-14,69,60,52,45,40,34,74,51,32,30.13,30.05,30.01,10,10,10,14,7,23,0.00,1,Rain,186
2013-3-15,63,55,48,42,40,38,77,58,41,30.20,30.15,30.11,10,10,10,17,12,23,0.00,1,,200
2013-3-16,55,48,39,42,38,33,85,70,47,30.10,29.97,29.83,10,10,3,33,12,44,0.12,6,Rain,212
2013-3-17,50,42,36,31,27,22,76,58,35,30.16,30.09,29.95,10,10,10,26,18,34,0.00,2,,224
2013-3-18,55,46,37,30,27,25,68,54,33,30.24,30.16,30.09,10,10,10,24,14,30,0.00,3,,216
2013-3-19,55,42,30,36,30,23,79,61,47,30.24,30.08,29.78,10,10,10,10,5,,0.00,3,Rain,133
2013-3-20,66,52,39,46,38,28,93,70,39,29.98,29.70,29.50,10,8,2,34,12,47,0.30,7,Rain,212
2013-3-21,50,42,35,31,27,23,76,59,36,30.15,30.10,30.00,10,10,10,24,18,33,0.00,4,,218
2013-3-22,45,39,34,29,26,19,79,63,37,30.33,30.22,30.14,10,9,2,12,9,26,0.00,6,,189
2013-3-23,48,38,30,26,24,18,76,59,33,30.40,30.35,30.30,10,10,10,9,6,,0.00,1,,163
2013-3-24,53,42,30,29,24,20,72,56,30,30.34,30.26,30.18,10,10,10,9,3,,0.00,0,,84
2013-3-25,60,48,37,33,29,25,67,52,32,30.17,30.07,29.95,10,10,10,10,5,,0.00,7,,165
2013-3-26,60,52,43,41,33,29,68,51,33,30.03,29.98,29.95,10,10,10,13,7,,0.00,6,Rain,177
2013-3-27,63,54,44,48,44,40,93,77,50,29.98,29.96,29.92,10,8,1,14,4,21,0.19,6,Rain-Thunderstorm,69
2013-3-28,64,54,45,49,46,43,93,74,53,30.09,30.05,29.98,10,10,4,12,4,,0.07,5,Rain,126
2013-3-29,64,56,48,46,43,39,86,65,40,30.22,30.18,30.10,10,10,10,12,4,16,0.00,3,,172
2013-3-30,71,58,45,45,40,36,76,55,29,30.25,30.18,30.09,10,10,10,9,6,,0.00,0,,119
2013-3-31,72,56,41,48,40,34,76,58,35,30.08,30.00,29.90,10,10,10,8,3,,0.00,0,,147